Terminal Aerodrome Forecast
Issued by NWS

Home | Current Version | Previous Version | Text Only | Print | Product List | Glossary On
Versions: 1 2 3 4 5 6 7 8 9 10 11 12 13 14 15 16 17 18 19 20 21
840
FTUS44 KLZK 301739
TAFBPK
TAF
KBPK 301739Z 3018/3118 22003KT P6SM SCT025
     FM302000 VRB05KT P6SM VCTS SCT035 BKN045CB
      TEMPO 3020/3023 1SM TSRA SCT018 BKN025CB OVC045
     FM302300 32003KT P6SM FEW250
     FM310300 00000KT 5SM BR FEW250
      TEMPO 3110/3114 2SM BR BKN007
     FM311400 18005KT P6SM SCT012 SCT020=

USA.gov is the U.S. government's official web portal to all federal, state and local government web resources and services.